createdAt,value
2023-01-17T04:36:30.606Z,98671.04
2023-01-17T04:38:58.006Z,98669.48
2023-01-17T04:41:32.575Z,98670.92
2023-01-17T04:44:02.170Z,98673.34
2023-01-17T04:46:51.318Z,98678.20
2023-01-17T04:49:18.856Z,98681.65
2023-01-17T04:51:47.413Z,98683.54
2023-01-17T04:54:16.487Z,98676.41
2023-01-17T05:02:36.286Z,98674.70
2023-01-17T05:05:04.555Z,98676.70
2023-01-17T05:07:33.535Z,98675.81
2023-01-17T05:10:03.222Z,98668.81
2023-01-17T05:12:41.372Z,98674.01
2023-01-17T05:15:15.015Z,98676.76
2023-01-17T05:17:44.572Z,98673.15
2023-01-17T05:20:16.394Z,98676.00
2023-01-17T05:22:51.877Z,98673.79
2023-01-17T05:25:21.057Z,98669.05
2023-01-17T05:27:48.337Z,98676.19
2023-01-17T05:30:16.099Z,98678.17
2023-01-17T05:32:49.705Z,98660.75
2023-01-17T05:35:22.020Z,98661.05
2023-01-17T05:37:50.656Z,98651.02
2023-01-17T05:40:28.389Z,98647.95
2023-01-17T05:42:57.286Z,98641.72
2023-01-17T05:45:25.798Z,98642.30
2023-01-17T05:47:53.806Z,98646.03
2023-01-17T05:50:24.576Z,98650.05
2023-01-17T05:52:56.578Z,98652.01
2023-01-17T05:55:24.765Z,98658.92
2023-01-17T05:57:52.426Z,98658.67
2023-01-17T06:00:22.427Z,98662.30
2023-01-17T06:02:50.129Z,98659.05
2023-01-17T06:05:21.988Z,98669.52
2023-01-17T06:07:52.001Z,98665.83
2023-01-17T06:10:21.144Z,98668.81
2023-01-17T06:12:49.823Z,98667.09
2023-01-17T06:15:18.299Z,98658.42
2023-01-17T06:17:45.916Z,98676.80
2023-01-17T06:20:14.212Z,98682.56
2023-01-17T06:22:49.087Z,98676.78
2023-01-17T06:25:19.660Z,98684.07
2023-01-17T06:27:48.242Z,98681.04
2023-01-17T06:30:25.176Z,98686.48
2023-01-17T06:32:59.220Z,98691.66
2023-01-17T06:35:29.704Z,98689.16
2023-01-17T06:38:00.803Z,98693.95
2023-01-17T06:40:30.092Z,98693.31
2023-01-17T06:43:43.086Z,98692.77
2023-01-17T06:46:13.955Z,98689.80
2023-01-17T06:48:43.793Z,98704.38
2023-01-17T06:51:21.929Z,98694.27
2023-01-17T06:53:50.605Z,98694.61
2023-01-17T06:56:21.909Z,98695.97
2023-01-17T06:58:50.853Z,98698.20
2023-01-17T07:01:19.772Z,98703.61
2023-01-17T07:03:48.578Z,98701.24
2023-01-17T07:06:15.890Z,98713.82
2023-01-17T07:08:43.558Z,98697.34
2023-01-17T07:11:12.852Z,98702.60
2023-01-17T07:13:40.215Z,98700.78
2023-01-17T07:16:09.307Z,98684.59
2023-01-17T07:18:36.504Z,98686.05
2023-01-17T07:21:04.615Z,98688.82
2023-01-17T07:23:31.833Z,98697.75
2023-01-17T07:26:02.049Z,98681.42
2023-01-17T07:28:31.522Z,98694.93
2023-01-17T07:31:06.291Z,98691.98
2023-01-17T07:33:35.696Z,98686.09
2023-01-17T07:36:09.907Z,98687.94
2023-01-17T07:38:37.512Z,98694.92
2023-01-17T07:41:11.018Z,98685.85
2023-01-17T07:43:38.670Z,98682.05
2023-01-17T07:46:08.385Z,98681.86
2023-01-17T07:48:36.145Z,98679.92
2023-01-17T07:51:06.588Z,98678.71
2023-01-17T07:53:36.995Z,98681.77
2023-01-17T07:56:07.773Z,98676.89
2023-01-17T07:58:37.579Z,98666.79
2023-01-17T08:01:05.749Z,98670.23
2023-01-17T08:03:36.133Z,98673.91
2023-01-17T08:06:03.671Z,98675.48
2023-01-17T14:14:44.545Z,98422.45
2023-01-17T14:17:23.239Z,98422.61
2023-01-17T14:19:51.356Z,98418.27
2023-01-17T15:03:03.979Z,98413.14
2023-01-17T15:05:33.412Z,98408.83
2023-01-17T15:08:00.495Z,98403.42
2023-01-17T15:10:32.042Z,98400.30
2023-01-17T15:13:07.154Z,98396.10
2023-01-17T15:15:35.904Z,98397.48
2023-01-17T15:18:15.379Z,98406.45
2023-01-17T15:20:46.692Z,98404.62
2023-01-17T15:23:22.404Z,98398.35
2023-01-17T15:25:50.710Z,98404.58
2023-01-17T15:28:20.182Z,98402.10
2023-01-17T15:31:40.843Z,98397.02
2023-01-17T15:34:19.229Z,98399.27
2023-01-17T15:36:51.052Z,98405.48
2023-01-17T15:39:36.012Z,98406.55
2023-01-17T15:42:25.081Z,98406.26
2023-01-17T15:45:03.451Z,98403.05
2023-01-17T15:47:33.693Z,98402.61
2023-01-17T15:50:02.210Z,98404.81
2023-01-17T15:52:30.280Z,98406.73
2023-01-17T15:55:40.315Z,98402.04
2023-01-17T15:58:40.312Z,98391.00
2023-01-17T16:01:14.983Z,98401.23
2023-01-17T16:03:51.977Z,98405.79
2023-01-17T16:06:48.169Z,98412.14
2023-01-17T22:23:54.415Z,98591.31
2023-01-17T22:26:28.038Z,98597.88
2023-01-17T22:28:58.650Z,98598.23
2023-01-17T22:31:27.325Z,98591.20
2023-01-17T22:34:05.269Z,98588.76
2023-01-17T22:36:33.223Z,98588.16
2023-01-17T22:39:00.853Z,98586.30
2023-01-17T22:41:34.677Z,98583.95
2023-01-17T22:44:02.604Z,98589.42
2023-01-17T22:46:31.394Z,98589.02
2023-01-17T22:48:59.364Z,98595.06
2023-01-17T22:51:29.830Z,98587.63
2023-01-17T22:53:59.730Z,98586.29
2023-01-17T22:56:28.794Z,98588.95
2023-01-17T22:58:58.005Z,98584.30
2023-01-17T23:01:29.889Z,98581.88
2023-01-17T23:04:01.189Z,98581.28
2023-01-17T23:06:34.363Z,98583.95
2023-01-17T23:09:07.697Z,98590.84
2023-01-17T23:11:43.019Z,98593.42
2023-01-17T23:14:15.404Z,98594.52
2023-01-17T23:17:06.444Z,98596.83
2023-01-17T23:25:31.671Z,98592.09
2023-01-17T23:28:11.381Z,98594.63
2023-01-17T23:30:40.610Z,98601.21
2023-01-17T23:33:12.563Z,98605.33
2023-01-17T23:35:42.519Z,98604.52
2023-01-17T23:38:26.638Z,98609.46
2023-01-17T23:41:12.529Z,98611.95
2023-01-17T23:43:41.204Z,98617.60
2023-01-17T23:46:11.261Z,98615.84
2023-01-17T23:48:38.299Z,98617.79
2023-01-17T23:51:11.692Z,98623.69
2023-01-17T23:53:38.935Z,98623.23
2023-01-17T23:56:10.365Z,98625.56
2023-01-17T23:58:38.717Z,98627.23
